Time,TemperatureF,DewpointF,PressureIn,WindDirection,WindDirectionDegrees,WindSpeedMPH,WindSpeedGustMPH,Humidity,HourlyPrecipIn,Conditions,Clouds,dailyrainin,SolarRadiationWatts/m^2,SoftwareType,DateUTC
2013-06-07 00:01:00,78.0,31.1,29.65,ENE,57,2.0,4.0,18,0.00,,,0.00,0,WeatherCatV1.11B39,2013-06-07 07:01:00,
2013-06-07 00:06:00,78.4,31.4,29.65,East,85,2.0,3.0,18,0.00,,,0.00,0,WeatherCatV1.11B39,2013-06-07 07:06:00,
2013-06-07 00:11:00,79.2,30.6,29.65,East,92,2.0,3.0,17,0.00,,,0.00,0,WeatherCatV1.11B39,2013-06-07 07:11:00,
2013-06-07 00:16:00,79.2,30.6,29.65,East,93,0.0,3.0,17,0.00,,,0.00,0,WeatherCatV1.11B39,2013-06-07 07:16:00,
2013-06-07 00:21:00,78.9,31.8,29.65,East,92,1.0,3.0,18,0.00,,,0.00,0,WeatherCatV1.11B39,2013-06-07 07:21:00,
2013-06-07 00:26:00,78.7,31.6,29.65,East,93,0.0,1.0,18,0.00,,,0.00,0,WeatherCatV1.11B39,2013-06-07 07:26:00,
2013-06-07 00:31:00,77.9,31.0,29.65,East,91,1.0,3.0,18,0.00,,,0.00,0,WeatherCatV1.11B39,2013-06-07 07:31:00,
2013-06-07 00:36:00,77.9,31.0,29.65,East,91,0.0,1.0,18,0.00,,,0.00,0,WeatherCatV1.11B39,2013-06-07 07:36:00,
2013-06-07 00:41:00,77.7,30.8,29.65,East,91,1.0,2.0,18,0.00,,,0.00,0,WeatherCatV1.11B39,2013-06-07 07:41:00,
2013-06-07 00:46:00,78.0,31.1,29.65,East,93,1.0,2.0,18,0.00,,,0.00,0,WeatherCatV1.11B39,2013-06-07 07:46:00,
2013-06-07 00:51:00,78.1,31.1,29.65,East,97,3.0,4.0,18,0.00,,,0.00,0,WeatherCatV1.11B39,2013-06-07 07:51:00,
2013-06-07 00:56:00,77.8,30.9,29.65,East,97,2.0,4.0,18,0.00,,,0.00,0,WeatherCatV1.11B39,2013-06-07 07:56:00,
2013-06-07 01:01:00,78.2,29.8,29.65,East,95,1.0,3.0,17,0.00,,,0.00,0,WeatherCatV1.11B39,2013-06-07 08:01:00,
2013-06-07 01:06:00,78.1,31.1,29.65,East,95,0.0,1.0,18,0.00,,,0.00,0,WeatherCatV1.11B39,2013-06-07 08:06:00,
2013-06-07 01:11:00,76.9,30.2,29.65,East,95,0.0,0.0,18,0.00,,,0.00,0,WeatherCatV1.11B39,2013-06-07 08:11:00,
2013-06-07 01:16:00,75.8,30.6,29.65,East,95,0.0,2.0,19,0.00,,,0.00,0,WeatherCatV1.11B39,2013-06-07 08:16:00,
2013-06-07 01:21:00,75.5,30.3,29.65,East,95,0.0,1.0,19,0.00,,,0.00,0,WeatherCatV1.11B39,2013-06-07 08:21:00,
2013-06-07 01:26:00,75.3,31.4,29.65,East,95,0.0,2.0,20,0.00,,,0.00,0,WeatherCatV1.11B39,2013-06-07 08:26:00,
2013-06-07 01:31:00,75.1,31.3,29.65,East,95,1.0,1.0,20,0.00,,,0.00,0,WeatherCatV1.11B39,2013-06-07 08:31:00,
2013-06-07 01:36:00,75.2,30.1,29.64,East,95,1.0,2.0,19,0.00,,,0.00,0,WeatherCatV1.11B39,2013-06-07 08:36:00,
2013-06-07 01:41:00,75.0,31.2,29.64,East,95,2.0,3.0,20,0.00,,,0.00,0,WeatherCatV1.11B39,2013-06-07 08:41:00,
2013-06-07 01:46:00,75.1,31.3,29.64,East,95,0.0,1.0,20,0.00,,,0.00,0,WeatherCatV1.11B39,2013-06-07 08:46:00,
2013-06-07 01:51:00,75.2,30.1,29.64,East,95,0.0,2.0,19,0.00,,,0.00,0,WeatherCatV1.11B39,2013-06-07 08:51:00,
2013-06-07 01:56:00,74.8,32.2,29.64,East,95,2.0,2.0,21,0.00,,,0.00,0,WeatherCatV1.11B39,2013-06-07 08:56:00,
2013-06-07 02:01:00,74.1,31.7,29.64,East,95,2.0,3.0,21,0.00,,,0.00,0,WeatherCatV1.11B39,2013-06-07 09:01:00,
2013-06-07 02:06:00,73.4,31.1,29.64,East,95,2.0,2.0,21,0.00,,,0.00,0,WeatherCatV1.11B39,2013-06-07 09:06:00,
2013-06-07 02:11:00,73.0,31.9,29.64,East,95,2.0,2.0,22,0.00,,,0.00,0,WeatherCatV1.11B39,2013-06-07 09:11:00,
2013-06-07 02:16:00,72.7,30.5,29.64,East,95,1.0,3.0,21,0.00,,,0.00,0,WeatherCatV1.11B39,2013-06-07 09:16:00,
2013-06-07 02:21:00,72.9,30.7,29.64,East,95,2.0,3.0,21,0.00,,,0.00,0,WeatherCatV1.11B39,2013-06-07 09:21:00,
2013-06-07 02:26:00,72.9,30.7,29.64,East,95,2.0,3.0,21,0.00,,,0.00,0,WeatherCatV1.11B39,2013-06-07 09:26:00,
2013-06-07 02:31:00,72.7,31.7,29.64,East,95,2.0,2.0,22,0.00,,,0.00,0,WeatherCatV1.11B39,2013-06-07 09:31:00,
2013-06-07 02:36:00,72.1,31.2,29.64,East,95,2.0,2.0,22,0.00,,,0.00,0,WeatherCatV1.11B39,2013-06-07 09:36:00,
2013-06-07 02:41:00,71.6,31.8,29.64,East,95,1.0,2.0,23,0.00,,,0.00,0,WeatherCatV1.11B39,2013-06-07 09:41:00,
2013-06-07 02:46:00,71.6,30.7,29.63,East,95,0.0,1.0,22,0.00,,,0.00,0,WeatherCatV1.11B39,2013-06-07 09:46:00,
2013-06-07 02:51:00,71.3,30.5,29.64,East,95,1.0,1.0,22,0.00,,,0.00,0,WeatherCatV1.11B39,2013-06-07 09:51:00,
2013-06-07 02:56:00,70.6,31.0,29.64,East,95,0.0,0.0,23,0.00,,,0.00,0,WeatherCatV1.11B39,2013-06-07 09:56:00,
2013-06-07 03:01:00,70.1,30.6,29.63,East,95,0.0,0.0,23,0.00,,,0.00,0,WeatherCatV1.11B39,2013-06-07 10:01:00,
2013-06-07 03:06:00,69.6,31.2,29.63,East,95,0.0,1.0,24,0.00,,,0.00,0,WeatherCatV1.11B39,2013-06-07 10:06:00,
2013-06-07 03:11:00,69.2,30.9,29.63,East,95,0.0,0.0,24,0.00,,,0.00,0,WeatherCatV1.11B39,2013-06-07 10:11:00,
2013-06-07 03:16:00,68.9,31.6,29.63,East,95,0.0,0.0,25,0.00,,,0.00,0,WeatherCatV1.11B39,2013-06-07 10:16:00,
2013-06-07 03:21:00,68.7,31.5,29.63,East,95,0.0,0.0,25,0.00,,,0.00,0,WeatherCatV1.11B39,2013-06-07 10:21:00,
2013-06-07 03:26:00,68.2,31.0,29.63,East,95,0.0,1.0,25,0.00,,,0.00,0,WeatherCatV1.11B39,2013-06-07 10:26:00,
2013-06-07 03:31:00,68.4,32.2,29.63,East,95,0.0,0.0,26,0.00,,,0.00,0,WeatherCatV1.11B39,2013-06-07 10:31:00,
2013-06-07 03:36:00,68.1,31.9,29.63,East,95,0.0,0.0,26,0.00,,,0.00,0,WeatherCatV1.11B39,2013-06-07 10:36:00,
2013-06-07 03:41:00,67.7,31.6,29.63,East,95,0.0,0.0,26,0.00,,,0.00,0,WeatherCatV1.11B39,2013-06-07 10:41:00,
2013-06-07 03:46:00,68.1,30.9,29.63,East,95,0.0,0.0,25,0.00,,,0.00,0,WeatherCatV1.11B39,2013-06-07 10:46:00,
2013-06-07 03:51:00,68.2,31.0,29.63,East,95,1.0,2.0,25,0.00,,,0.00,0,WeatherCatV1.11B39,2013-06-07 10:51:00,
2013-06-07 03:56:00,67.8,31.7,29.63,East,95,0.0,1.0,26,0.00,,,0.00,0,WeatherCatV1.11B39,2013-06-07 10:56:00,
2013-06-07 04:01:00,67.2,31.2,29.63,East,95,0.0,0.0,26,0.00,,,0.00,0,WeatherCatV1.11B39,2013-06-07 11:01:00,
2013-06-07 04:06:00,66.9,31.8,29.63,East,95,0.0,1.0,27,0.00,,,0.00,0,WeatherCatV1.11B39,2013-06-07 11:06:00,
2013-06-07 04:11:00,67.6,31.5,29.63,East,95,0.0,1.0,26,0.00,,,0.00,0,WeatherCatV1.11B39,2013-06-07 11:11:00,
2013-06-07 04:16:00,68.0,34.6,29.63,East,95,0.0,2.0,29,0.00,,,0.00,0,WeatherCatV1.11B39,2013-06-07 11:16:00,
2013-06-07 04:21:00,67.7,32.5,29.63,East,95,2.0,3.0,27,0.00,,,0.00,0,WeatherCatV1.11B39,2013-06-07 11:21:00,
2013-06-07 04:26:00,67.9,32.7,29.63,East,95,0.0,2.0,27,0.00,,,0.00,0,WeatherCatV1.11B39,2013-06-07 11:26:00,
2013-06-07 04:31:00,67.9,30.8,29.63,East,95,2.0,2.0,25,0.00,,,0.00,0,WeatherCatV1.11B39,2013-06-07 11:31:00,
2013-06-07 04:36:00,68.4,30.2,29.63,East,95,0.0,1.0,24,0.00,,,0.00,0,WeatherCatV1.11B39,2013-06-07 11:36:00,
2013-06-07 04:41:00,67.6,31.5,29.64,East,95,0.0,0.0,26,0.00,,,0.00,0,WeatherCatV1.11B39,2013-06-07 11:41:00,
2013-06-07 04:46:00,66.9,31.8,29.64,East,95,0.0,0.0,27,0.00,,,0.00,0,WeatherCatV1.11B39,2013-06-07 11:46:00,
2013-06-07 04:51:00,66.5,31.5,29.64,East,95,0.0,0.0,27,0.00,,,0.00,0,WeatherCatV1.11B39,2013-06-07 11:51:00,
2013-06-07 04:56:00,65.8,32.7,29.64,East,95,0.0,0.0,29,0.00,,,0.00,0,WeatherCatV1.11B39,2013-06-07 11:56:00,
2013-06-07 05:01:00,65.4,31.4,29.64,East,95,0.0,0.0,28,0.00,,,0.00,0,WeatherCatV1.11B39,2013-06-07 12:01:00,
2013-06-07 05:06:00,65.3,33.1,29.64,East,95,1.0,2.0,30,0.00,,,0.00,0,WeatherCatV1.11B39,2013-06-07 12:06:00,
2013-06-07 05:11:00,65.0,32.0,29.64,East,95,0.0,1.0,29,0.00,,,0.00,0,WeatherCatV1.11B39,2013-06-07 12:11:00,
2013-06-07 05:16:00,65.2,32.1,29.64,East,95,0.0,0.0,29,0.00,,,0.00,0,WeatherCatV1.11B39,2013-06-07 12:16:00,
2013-06-07 05:21:00,65.6,31.6,29.65,East,95,0.0,0.0,28,0.00,,,0.00,7,WeatherCatV1.11B39,2013-06-07 12:21:00,
2013-06-07 05:26:00,65.1,31.2,29.65,East,95,0.0,1.0,28,0.00,,,0.00,9,WeatherCatV1.11B39,2013-06-07 12:26:00,
2013-06-07 05:31:00,65.0,32.0,29.65,East,95,1.0,1.0,29,0.00,,,0.00,12,WeatherCatV1.11B39,2013-06-07 12:31:00,
2013-06-07 05:36:00,64.8,32.6,29.64,East,95,0.0,1.0,30,0.00,,,0.00,18,WeatherCatV1.11B39,2013-06-07 12:36:00,
2013-06-07 05:41:00,65.0,33.6,29.65,East,95,0.0,1.0,31,0.00,,,0.00,21,WeatherCatV1.11B39,2013-06-07 12:41:00,
2013-06-07 05:46:00,65.2,33.8,29.65,ESE,105,0.0,1.0,31,0.00,,,0.00,33,WeatherCatV1.11B39,2013-06-07 12:46:00,
2013-06-07 05:51:00,65.8,33.5,29.65,ESE,105,1.0,1.0,30,0.00,,,0.00,44,WeatherCatV1.11B39,2013-06-07 12:51:00,
2013-06-07 05:56:00,66.8,34.4,29.65,East,98,0.0,3.0,30,0.00,,,0.00,56,WeatherCatV1.11B39,2013-06-07 12:56:00,
2013-06-07 06:02:00,68.0,34.6,29.65,East,98,0.0,1.0,29,0.00,,,0.00,69,WeatherCatV1.11B39,2013-06-07 13:02:00,
2013-06-07 06:07:00,68.7,36.0,29.65,East,98,0.0,1.0,30,0.00,,,0.00,84,WeatherCatV1.11B39,2013-06-07 13:07:00,
2013-06-07 06:12:00,69.8,36.1,29.66,East,98,0.0,1.0,29,0.00,,,0.00,100,WeatherCatV1.11B39,2013-06-07 13:12:00,
2013-06-07 06:17:00,70.9,37.0,29.66,East,98,0.0,0.0,29,0.00,,,0.00,116,WeatherCatV1.11B39,2013-06-07 13:17:00,
2013-06-07 06:22:00,71.3,38.3,29.66,East,98,0.0,0.0,30,0.00,,,0.00,135,WeatherCatV1.11B39,2013-06-07 13:22:00,
2013-06-07 06:27:00,71.7,39.4,29.66,East,98,1.0,1.0,31,0.00,,,0.00,151,WeatherCatV1.11B39,2013-06-07 13:27:00,
2013-06-07 06:32:00,72.8,37.8,29.66,East,98,1.0,2.0,28,0.00,,,0.00,165,WeatherCatV1.11B39,2013-06-07 13:32:00,
2013-06-07 06:37:00,73.7,36.7,29.67,East,98,0.0,1.0,26,0.00,,,0.00,181,WeatherCatV1.11B39,2013-06-07 13:37:00,
2013-06-07 06:42:00,74.4,36.3,29.67,East,98,0.0,1.0,25,0.00,,,0.00,193,WeatherCatV1.11B39,2013-06-07 13:42:00,
2013-06-07 06:47:00,74.8,34.5,29.67,East,98,2.0,2.0,23,0.00,,,0.00,211,WeatherCatV1.11B39,2013-06-07 13:47:00,
2013-06-07 06:52:00,75.3,34.9,29.67,East,98,1.0,2.0,23,0.00,,,0.00,227,WeatherCatV1.11B39,2013-06-07 13:52:00,
2013-06-07 06:57:00,75.9,34.3,29.67,East,98,0.0,1.0,22,0.00,,,0.00,244,WeatherCatV1.11B39,2013-06-07 13:57:00,
2013-06-07 07:02:00,76.6,36.0,29.67,East,98,0.0,1.0,23,0.00,,,0.00,260,WeatherCatV1.11B39,2013-06-07 14:02:00,
2013-06-07 07:07:00,77.6,35.7,29.67,East,98,0.0,2.0,22,0.00,,,0.00,278,WeatherCatV1.11B39,2013-06-07 14:07:00,
2013-06-07 07:12:00,78.2,35.1,29.67,East,95,2.0,3.0,21,0.00,,,0.00,292,WeatherCatV1.11B39,2013-06-07 14:12:00,
2013-06-07 07:17:00,79.3,34.7,29.67,East,95,2.0,2.0,20,0.00,,,0.00,308,WeatherCatV1.11B39,2013-06-07 14:17:00,
2013-06-07 07:22:00,80.3,34.3,29.67,East,95,1.0,3.0,19,0.00,,,0.00,325,WeatherCatV1.11B39,2013-06-07 14:22:00,
2013-06-07 07:27:00,81.1,33.6,29.67,East,95,2.0,2.0,18,0.00,,,0.00,343,WeatherCatV1.11B39,2013-06-07 14:27:00,
2013-06-07 07:32:00,81.9,34.2,29.67,East,101,1.0,2.0,18,0.00,,,0.00,357,WeatherCatV1.11B39,2013-06-07 14:32:00,
2013-06-07 07:37:00,82.6,33.4,29.67,East,101,0.0,2.0,17,0.00,,,0.00,376,WeatherCatV1.11B39,2013-06-07 14:37:00,
2013-06-07 07:42:00,82.5,33.3,29.67,East,101,0.0,2.0,17,0.00,,,0.00,390,WeatherCatV1.11B39,2013-06-07 14:42:00,
2013-06-07 07:47:00,83.0,33.7,29.67,East,101,1.0,1.0,17,0.00,,,0.00,406,WeatherCatV1.11B39,2013-06-07 14:47:00,
2013-06-07 07:52:00,83.9,32.9,29.67,East,101,1.0,1.0,16,0.00,,,0.00,424,WeatherCatV1.11B39,2013-06-07 14:52:00,
2013-06-07 07:57:00,84.5,33.4,29.67,East,99,1.0,3.0,16,0.00,,,0.00,439,WeatherCatV1.11B39,2013-06-07 14:57:00,
2013-06-07 08:02:00,84.5,31.8,29.67,East,94,2.0,3.0,15,0.00,,,0.00,455,WeatherCatV1.11B39,2013-06-07 15:02:00,
2013-06-07 08:07:00,85.0,33.8,29.67,East,93,1.0,3.0,16,0.00,,,0.00,469,WeatherCatV1.11B39,2013-06-07 15:07:00,
2013-06-07 08:12:00,86.4,33.3,29.67,SE,138,1.0,2.0,15,0.00,,,0.00,489,WeatherCatV1.11B39,2013-06-07 15:12:00,
2013-06-07 08:17:00,86.6,33.4,29.67,SSW,207,0.0,2.0,15,0.00,,,0.00,508,WeatherCatV1.11B39,2013-06-07 15:17:00,
2013-06-07 08:22:00,87.0,35.4,29.67,SW,219,3.0,4.0,16,0.00,,,0.00,520,WeatherCatV1.11B39,2013-06-07 15:22:00,
2013-06-07 08:27:00,87.7,34.3,29.67,WNW,282,2.0,5.0,15,0.00,,,0.00,536,WeatherCatV1.11B39,2013-06-07 15:27:00,
2013-06-07 08:32:00,87.9,32.7,29.67,WNW,292,1.0,3.0,14,0.00,,,0.00,550,WeatherCatV1.11B39,2013-06-07 15:32:00,
2013-06-07 08:37:00,88.3,33.0,29.67,WNW,292,0.0,1.0,14,0.00,,,0.00,568,WeatherCatV1.11B39,2013-06-07 15:37:00,
2013-06-07 08:42:00,88.9,33.5,29.67,WNW,292,0.0,1.0,14,0.00,,,0.00,584,WeatherCatV1.11B39,2013-06-07 15:42:00,
2013-06-07 08:47:00,89.3,32.0,29.67,WNW,292,0.0,1.0,13,0.00,,,0.00,598,WeatherCatV1.11B39,2013-06-07 15:47:00,
2013-06-07 08:52:00,90.4,32.8,29.67,West,265,0.0,2.0,13,0.00,,,0.00,613,WeatherCatV1.11B39,2013-06-07 15:52:00,
2013-06-07 08:57:00,90.1,32.6,29.67,West,265,1.0,3.0,13,0.00,,,0.00,626,WeatherCatV1.11B39,2013-06-07 15:57:00,
2013-06-07 09:02:00,90.8,33.2,29.67,West,266,2.0,4.0,13,0.00,,,0.00,643,WeatherCatV1.11B39,2013-06-07 16:02:00,
2013-06-07 09:07:00,91.2,31.5,29.66,West,267,2.0,3.0,12,0.00,,,0.00,654,WeatherCatV1.11B39,2013-06-07 16:07:00,
2013-06-07 09:12:00,91.5,31.7,29.66,West,279,1.0,6.0,12,0.00,,,0.00,670,WeatherCatV1.11B39,2013-06-07 16:12:00,
2013-06-07 09:17:00,91.8,31.9,29.66,West,278,2.0,3.0,12,0.00,,,0.00,684,WeatherCatV1.11B39,2013-06-07 16:17:00,
2013-06-07 09:22:00,92.6,32.6,29.66,West,278,0.0,1.0,12,0.00,,,0.00,698,WeatherCatV1.11B39,2013-06-07 16:22:00,
2013-06-07 09:27:00,93.0,32.9,29.66,SW,221,5.0,5.0,12,0.00,,,0.00,710,WeatherCatV1.11B39,2013-06-07 16:27:00,
2013-06-07 09:32:00,93.5,33.2,29.66,SW,223,2.0,4.0,12,0.00,,,0.00,724,WeatherCatV1.11B39,2013-06-07 16:32:00,
2013-06-07 09:36:00,93.5,31.1,29.66,SW,217,2.0,3.0,11,0.00,,,0.00,735,WeatherCatV1.11B39,2013-06-07 16:36:00,
2013-06-07 09:41:00,93.2,30.9,29.66,South,170,0.0,4.0,11,0.00,,,0.00,749,WeatherCatV1.11B39,2013-06-07 16:41:00,
2013-06-07 09:46:00,93.7,31.2,29.66,South,170,1.0,3.0,11,0.00,,,0.00,759,WeatherCatV1.11B39,2013-06-07 16:46:00,
2013-06-07 09:51:00,95.1,32.3,29.66,SSW,210,2.0,3.0,11,0.00,,,0.00,768,WeatherCatV1.11B39,2013-06-07 16:51:00,
2013-06-07 09:56:00,95.5,32.6,29.66,SSE,159,1.0,2.0,11,0.00,,,0.00,784,WeatherCatV1.11B39,2013-06-07 16:56:00,
2013-06-07 10:01:00,94.6,31.9,29.65,SSW,193,2.0,4.0,11,0.00,,,0.00,795,WeatherCatV1.11B39,2013-06-07 17:01:00,
2013-06-07 10:06:00,96.0,33.0,29.65,SSW,195,3.0,3.0,11,0.00,,,0.00,809,WeatherCatV1.11B39,2013-06-07 17:06:00,
2013-06-07 10:11:00,95.8,30.5,29.65,NW,311,2.0,4.0,10,0.00,,,0.00,817,WeatherCatV1.11B39,2013-06-07 17:11:00,
2013-06-07 10:16:00,95.7,32.8,29.65,SW,215,4.0,5.0,11,0.00,,,0.00,824,WeatherCatV1.11B39,2013-06-07 17:16:00,
2013-06-07 10:21:00,97.3,31.6,29.65,South,186,1.0,4.0,10,0.00,,,0.00,837,WeatherCatV1.11B39,2013-06-07 17:21:00,
2013-06-07 10:26:00,97.7,31.9,29.65,WSW,251,3.0,7.0,10,0.00,,,0.00,847,WeatherCatV1.11B39,2013-06-07 17:26:00,
2013-06-07 10:31:00,96.4,30.9,29.65,WSW,251,0.0,4.0,10,0.00,,,0.00,856,WeatherCatV1.11B39,2013-06-07 17:31:00,
2013-06-07 10:36:00,96.3,30.9,29.65,West,275,1.0,7.0,10,0.00,,,0.00,863,WeatherCatV1.11B39,2013-06-07 17:36:00,
2013-06-07 10:41:00,96.5,31.0,29.64,West,266,1.0,4.0,10,0.00,,,0.00,872,WeatherCatV1.11B39,2013-06-07 17:41:00,
2013-06-07 10:46:00,97.5,31.8,29.64,WSW,240,4.0,7.0,10,0.00,,,0.00,879,WeatherCatV1.11B39,2013-06-07 17:46:00,
2013-06-07 10:51:00,99.4,33.2,29.64,WNW,292,3.0,7.0,10,0.00,,,0.00,889,WeatherCatV1.11B39,2013-06-07 17:51:00,
2013-06-07 10:56:00,97.7,29.3,29.64,West,263,4.0,4.0,9,0.00,,,0.00,895,WeatherCatV1.11B39,2013-06-07 17:56:00,
2013-06-07 11:01:00,97.9,32.1,29.64,NW,315,2.0,4.0,10,0.00,,,0.00,904,WeatherCatV1.11B39,2013-06-07 18:01:00,
2013-06-07 11:06:00,98.6,32.6,29.63,NW,305,4.0,5.0,10,0.00,,,0.00,911,WeatherCatV1.11B39,2013-06-07 18:06:00,
2013-06-07 11:11:00,99.3,30.5,29.63,NW,315,0.0,2.0,9,0.00,,,0.00,916,WeatherCatV1.11B39,2013-06-07 18:11:00,
2013-06-07 11:16:00,99.9,33.6,29.63,SW,233,3.0,6.0,10,0.00,,,0.00,921,WeatherCatV1.11B39,2013-06-07 18:16:00,
2013-06-07 11:21:00,99.9,30.9,29.63,WSW,255,1.0,5.0,9,0.00,,,0.00,926,WeatherCatV1.11B39,2013-06-07 18:21:00,
2013-06-07 11:26:00,100.0,31.0,29.62,NW,311,6.0,10.0,9,0.00,,,0.00,932,WeatherCatV1.11B39,2013-06-07 18:26:00,
2013-06-07 11:31:00,100.3,31.2,29.62,WNW,296,1.0,6.0,9,0.00,,,0.00,935,WeatherCatV1.11B39,2013-06-07 18:31:00,
2013-06-07 11:36:00,100.7,31.5,29.62,WSW,250,5.0,5.0,9,0.00,,,0.00,939,WeatherCatV1.11B39,2013-06-07 18:36:00,
2013-06-07 11:41:00,101.5,32.1,29.62,South,190,6.0,8.0,9,0.00,,,0.00,942,WeatherCatV1.11B39,2013-06-07 18:41:00,
2013-06-07 11:46:00,102.4,32.8,29.62,SSW,213,4.0,8.0,9,0.00,,,0.00,949,WeatherCatV1.11B39,2013-06-07 18:46:00,
2013-06-07 11:51:00,102.7,30.1,29.61,NW,320,3.0,6.0,8,0.00,,,0.00,953,WeatherCatV1.11B39,2013-06-07 18:51:00,
2013-06-07 11:56:00,101.5,29.2,29.61,SW,230,6.0,6.0,8,0.00,,,0.00,954,WeatherCatV1.11B39,2013-06-07 18:56:00,
2013-06-07 12:01:00,101.5,32.1,29.61,SW,215,2.0,3.0,9,0.00,,,0.00,954,WeatherCatV1.11B39,2013-06-07 19:01:00,
2013-06-07 12:06:00,102.1,29.7,29.61,NW,314,2.0,5.0,8,0.00,,,0.00,960,WeatherCatV1.11B39,2013-06-07 19:06:00,
2013-06-07 12:11:00,103.0,30.3,29.61,West,271,6.0,6.0,8,0.00,,,0.00,956,WeatherCatV1.11B39,2013-06-07 19:11:00,
2013-06-07 12:16:00,102.7,30.1,29.60,SSW,204,5.0,9.0,8,0.00,,,0.00,962,WeatherCatV1.11B39,2013-06-07 19:16:00,
2013-06-07 12:21:00,103.2,30.5,29.60,WSW,249,4.0,11.0,8,0.00,,,0.00,963,WeatherCatV1.11B39,2013-06-07 19:21:00,
2013-06-07 12:26:00,103.3,30.5,29.60,NW,315,5.0,6.0,8,0.00,,,0.00,965,WeatherCatV1.11B39,2013-06-07 19:26:00,
2013-06-07 12:31:00,102.1,29.7,29.60,NE,39,1.0,3.0,8,0.00,,,0.00,965,WeatherCatV1.11B39,2013-06-07 19:31:00,
2013-06-07 12:36:00,104.1,31.1,29.59,SW,224,4.0,10.0,8,0.00,,,0.00,969,WeatherCatV1.11B39,2013-06-07 19:36:00,
2013-06-07 12:41:00,104.3,31.3,29.59,WNW,298,7.0,9.0,8,0.00,,,0.00,965,WeatherCatV1.11B39,2013-06-07 19:41:00,
2013-06-07 12:46:00,104.0,31.1,29.59,WSW,254,8.0,11.0,8,0.00,,,0.00,963,WeatherCatV1.11B39,2013-06-07 19:46:00,
2013-06-07 12:51:00,103.9,31.0,29.59,WNW,283,4.0,7.0,8,0.00,,,0.00,965,WeatherCatV1.11B39,2013-06-07 19:51:00,
2013-06-07 12:56:00,103.5,30.7,29.58,SSE,161,2.0,4.0,8,0.00,,,0.00,963,WeatherCatV1.11B39,2013-06-07 19:56:00,
2013-06-07 13:01:00,104.6,31.5,29.58,West,271,4.0,8.0,8,0.00,,,0.00,960,WeatherCatV1.11B39,2013-06-07 20:01:00,
2013-06-07 13:06:00,104.9,31.7,29.58,SW,234,4.0,11.0,8,0.00,,,0.00,954,WeatherCatV1.11B39,2013-06-07 20:06:00,
2013-06-07 13:11:00,105.6,28.9,29.58,SSW,192,2.0,5.0,7,0.00,,,0.00,951,WeatherCatV1.11B39,2013-06-07 20:11:00,
2013-06-07 13:16:00,104.6,31.5,29.58,NW,317,4.0,9.0,8,0.00,,,0.00,946,WeatherCatV1.11B39,2013-06-07 20:16:00,
2013-06-07 13:21:00,105.1,28.6,29.57,SSW,196,7.0,8.0,7,0.00,,,0.00,946,WeatherCatV1.11B39,2013-06-07 20:21:00,
2013-06-07 13:26:00,106.1,29.3,29.57,NNW,330,3.0,11.0,7,0.00,,,0.00,939,WeatherCatV1.11B39,2013-06-07 20:26:00,
2013-06-07 13:31:00,106.5,29.6,29.57,SW,225,3.0,8.0,7,0.00,,,0.00,933,WeatherCatV1.11B39,2013-06-07 20:31:00,
2013-06-07 13:36:00,106.6,29.7,29.57,West,273,5.0,8.0,7,0.00,,,0.00,930,WeatherCatV1.11B39,2013-06-07 20:36:00,
2013-06-07 13:41:00,105.5,28.9,29.56,NW,326,5.0,11.0,7,0.00,,,0.00,921,WeatherCatV1.11B39,2013-06-07 20:41:00,
2013-06-07 13:46:00,105.4,28.8,29.56,West,276,3.0,11.0,7,0.00,,,0.00,912,WeatherCatV1.11B39,2013-06-07 20:46:00,
2013-06-07 13:51:00,106.1,29.3,29.56,NW,326,3.0,7.0,7,0.00,,,0.00,904,WeatherCatV1.11B39,2013-06-07 20:51:00,
2013-06-07 13:56:00,106.6,29.7,29.56,West,276,2.0,15.0,7,0.00,,,0.00,898,WeatherCatV1.11B39,2013-06-07 20:56:00,
2013-06-07 14:01:00,106.9,29.9,29.55,West,266,8.0,10.0,7,0.00,,,0.00,895,WeatherCatV1.11B39,2013-06-07 21:01:00,
2013-06-07 14:06:00,105.8,29.1,29.55,West,263,0.0,7.0,7,0.00,,,0.00,886,WeatherCatV1.11B39,2013-06-07 21:06:00,
2013-06-07 14:11:00,106.3,29.4,29.55,NW,321,3.0,7.0,7,0.00,,,0.00,875,WeatherCatV1.11B39,2013-06-07 21:11:00,
2013-06-07 14:16:00,106.2,29.4,29.55,West,260,9.0,9.0,7,0.00,,,0.00,861,WeatherCatV1.11B39,2013-06-07 21:16:00,
2013-06-07 14:22:00,107.1,26.3,29.54,WSW,249,5.0,14.0,6,0.00,,,0.00,851,WeatherCatV1.11B39,2013-06-07 21:22:00,
2013-06-07 14:27:00,107.5,26.5,29.54,SW,222,5.0,9.0,6,0.00,,,0.00,847,WeatherCatV1.11B39,2013-06-07 21:27:00,
2013-06-07 14:32:00,107.6,26.6,29.54,WSW,258,6.0,7.0,6,0.00,,,0.00,833,WeatherCatV1.11B39,2013-06-07 21:32:00,
2013-06-07 14:37:00,108.2,27.0,29.53,WNW,286,14.0,16.0,6,0.00,,,0.00,821,WeatherCatV1.11B39,2013-06-07 21:37:00,
2013-06-07 14:42:00,106.6,25.9,29.53,WSW,253,11.0,14.0,6,0.00,,,0.00,814,WeatherCatV1.11B39,2013-06-07 21:42:00,
2013-06-07 14:47:00,106.0,25.5,29.53,WNW,291,7.0,15.0,6,0.00,,,0.00,809,WeatherCatV1.11B39,2013-06-07 21:47:00,
2013-06-07 14:52:00,105.6,25.2,29.53,NNW,332,5.0,9.0,6,0.00,,,0.00,791,WeatherCatV1.11B39,2013-06-07 21:52:00,
2013-06-07 14:57:00,105.8,25.3,29.53,West,280,6.0,14.0,6,0.00,,,0.00,782,WeatherCatV1.11B39,2013-06-07 21:57:00,
2013-06-07 15:02:00,106.4,25.8,29.52,NW,322,5.0,6.0,6,0.00,,,0.00,770,WeatherCatV1.11B39,2013-06-07 22:02:00,
2013-06-07 15:07:00,106.8,26.0,29.52,West,266,4.0,13.0,6,0.00,,,0.00,754,WeatherCatV1.11B39,2013-06-07 22:07:00,
2013-06-07 15:12:00,106.8,26.0,29.52,WSW,256,7.0,12.0,6,0.00,,,0.00,744,WeatherCatV1.11B39,2013-06-07 22:12:00,
2013-06-07 15:17:00,106.3,25.7,29.52,SSW,199,6.0,10.0,6,0.00,,,0.00,735,WeatherCatV1.11B39,2013-06-07 22:17:00,
2013-06-07 15:22:00,107.3,26.4,29.52,WNW,287,4.0,9.0,6,0.00,,,0.00,721,WeatherCatV1.11B39,2013-06-07 22:22:00,
2013-06-07 15:27:00,107.6,26.6,29.52,SSW,208,5.0,6.0,6,0.00,,,0.00,710,WeatherCatV1.11B39,2013-06-07 22:27:00,
2013-06-07 15:32:00,108.4,27.2,29.51,West,269,4.0,7.0,6,0.00,,,0.00,687,WeatherCatV1.11B39,2013-06-07 22:32:00,
2013-06-07 15:37:00,107.2,26.3,29.52,NW,326,6.0,15.0,6,0.00,,,0.00,673,WeatherCatV1.11B39,2013-06-07 22:37:00,
2013-06-07 15:42:00,106.4,25.8,29.51,NW,315,4.0,4.0,6,0.00,,,0.00,659,WeatherCatV1.11B39,2013-06-07 22:42:00,
2013-06-07 15:47:00,106.6,25.9,29.51,WSW,249,10.0,13.0,6,0.00,,,0.00,649,WeatherCatV1.11B39,2013-06-07 22:47:00,
2013-06-07 15:52:00,106.0,25.5,29.51,WSW,251,6.0,11.0,6,0.00,,,0.00,633,WeatherCatV1.11B39,2013-06-07 22:52:00,
2013-06-07 15:57:00,106.0,25.5,29.51,NW,304,6.0,10.0,6,0.00,,,0.00,619,WeatherCatV1.11B39,2013-06-07 22:57:00,
2013-06-07 16:02:00,105.8,25.3,29.50,NW,308,6.0,9.0,6,0.00,,,0.00,606,WeatherCatV1.11B39,2013-06-07 23:02:00,
2013-06-07 16:07:00,105.7,25.3,29.50,NW,312,5.0,7.0,6,0.00,,,0.00,587,WeatherCatV1.11B39,2013-06-07 23:07:00,
2013-06-07 16:12:00,105.8,25.3,29.50,WNW,299,5.0,11.0,6,0.00,,,0.00,571,WeatherCatV1.11B39,2013-06-07 23:12:00,
2013-06-07 16:17:00,105.7,29.0,29.50,West,267,7.0,13.0,7,0.00,,,0.00,557,WeatherCatV1.11B39,2013-06-07 23:17:00,
2013-06-07 16:22:00,105.6,28.9,29.50,NNW,343,2.0,8.0,7,0.00,,,0.00,540,WeatherCatV1.11B39,2013-06-07 23:22:00,
2013-06-07 16:27:00,105.7,29.0,29.50,West,265,6.0,8.0,7,0.00,,,0.00,526,WeatherCatV1.11B39,2013-06-07 23:27:00,
2013-06-07 16:32:00,105.3,25.0,29.49,West,275,5.0,10.0,6,0.00,,,0.00,508,WeatherCatV1.11B39,2013-06-07 23:32:00,
2013-06-07 16:37:00,105.4,28.8,29.49,WSW,237,5.0,8.0,7,0.00,,,0.00,490,WeatherCatV1.11B39,2013-06-07 23:37:00,
2013-06-07 16:42:00,106.6,25.9,29.49,West,273,7.0,11.0,6,0.00,,,0.00,476,WeatherCatV1.11B39,2013-06-07 23:42:00,
2013-06-07 16:47:00,105.9,25.4,29.49,West,274,10.0,12.0,6,0.00,,,0.00,459,WeatherCatV1.11B39,2013-06-07 23:47:00,
2013-06-07 16:52:00,105.3,25.0,29.49,WNW,288,10.0,12.0,6,0.00,,,0.00,443,WeatherCatV1.11B39,2013-06-07 23:52:00,
2013-06-07 16:57:00,104.9,28.4,29.49,West,279,6.0,15.0,7,0.00,,,0.00,432,WeatherCatV1.11B39,2013-06-07 23:57:00,
2013-06-07 17:02:00,104.5,28.1,29.49,WSW,251,3.0,10.0,7,0.00,,,0.00,413,WeatherCatV1.11B39,2013-06-08 00:02:00,
2013-06-07 17:07:00,105.2,28.6,29.49,West,280,6.0,8.0,7,0.00,,,0.00,394,WeatherCatV1.11B39,2013-06-08 00:07:00,
2013-06-07 17:12:00,105.0,28.5,29.49,WNW,300,2.0,8.0,7,0.00,,,0.00,378,WeatherCatV1.11B39,2013-06-08 00:12:00,
2013-06-07 17:17:00,104.6,28.2,29.49,NW,318,4.0,9.0,7,0.00,,,0.00,360,WeatherCatV1.11B39,2013-06-08 00:17:00,
2013-06-07 17:22:00,103.9,27.7,29.49,WNW,288,7.0,12.0,7,0.00,,,0.00,345,WeatherCatV1.11B39,2013-06-08 00:22:00,
2013-06-07 17:27:00,103.9,27.7,29.49,WSW,244,3.0,9.0,7,0.00,,,0.00,329,WeatherCatV1.11B39,2013-06-08 00:27:00,
2013-06-07 17:32:00,104.1,27.9,29.49,NW,323,4.0,5.0,7,0.00,,,0.00,309,WeatherCatV1.11B39,2013-06-08 00:32:00,
2013-06-07 17:37:00,104.3,28.0,29.49,West,272,2.0,10.0,7,0.00,,,0.00,294,WeatherCatV1.11B39,2013-06-08 00:37:00,
2013-06-07 17:42:00,103.7,27.6,29.49,NW,310,4.0,5.0,7,0.00,,,0.00,279,WeatherCatV1.11B39,2013-06-08 00:42:00,
2013-06-07 17:47:00,103.7,27.6,29.48,NW,322,1.0,8.0,7,0.00,,,0.00,265,WeatherCatV1.11B39,2013-06-08 00:47:00,
2013-06-07 17:52:00,103.6,27.5,29.48,NW,305,3.0,4.0,7,0.00,,,0.00,248,WeatherCatV1.11B39,2013-06-08 00:52:00,
2013-06-07 17:57:00,103.7,27.6,29.48,WSW,256,6.0,9.0,7,0.00,,,0.00,232,WeatherCatV1.11B39,2013-06-08 00:57:00,
2013-06-07 18:02:00,103.3,27.3,29.49,WSW,253,4.0,11.0,7,0.00,,,0.00,213,WeatherCatV1.11B39,2013-06-08 01:02:00,
2013-06-07 18:07:00,103.2,27.2,29.49,NW,305,4.0,10.0,7,0.00,,,0.00,195,WeatherCatV1.11B39,2013-06-08 01:07:00,
2013-06-07 18:12:00,102.8,26.9,29.49,WNW,284,3.0,10.0,7,0.00,,,0.00,178,WeatherCatV1.11B39,2013-06-08 01:12:00,
2013-06-07 18:17:00,102.5,26.7,29.49,WSW,248,9.0,10.0,7,0.00,,,0.00,156,WeatherCatV1.11B39,2013-06-08 01:17:00,
2013-06-07 18:22:00,102.3,26.6,29.49,NNW,330,10.0,14.0,7,0.00,,,0.00,141,WeatherCatV1.11B39,2013-06-08 01:22:00,
2013-06-07 18:27:00,101.8,26.2,29.48,West,264,5.0,10.0,7,0.00,,,0.00,123,WeatherCatV1.11B39,2013-06-08 01:27:00,
2013-06-07 18:32:00,101.6,26.1,29.49,WNW,303,7.0,7.0,7,0.00,,,0.00,104,WeatherCatV1.11B39,2013-06-08 01:32:00,
2013-06-07 18:37:00,101.2,25.8,29.49,West,274,4.0,9.0,7,0.00,,,0.00,90,WeatherCatV1.11B39,2013-06-08 01:37:00,
2013-06-07 18:42:00,101.0,28.9,29.49,West,276,2.0,7.0,8,0.00,,,0.00,76,WeatherCatV1.11B39,2013-06-08 01:42:00,
2013-06-07 18:47:00,100.8,25.5,29.49,NW,310,2.0,8.0,7,0.00,,,0.00,60,WeatherCatV1.11B39,2013-06-08 01:47:00,
2013-06-07 18:52:00,100.3,28.4,29.49,WNW,293,3.0,9.0,8,0.00,,,0.00,49,WeatherCatV1.11B39,2013-06-08 01:52:00,
2013-06-07 18:57:00,100.0,28.1,29.49,NW,311,3.0,6.0,8,0.00,,,0.00,39,WeatherCatV1.11B39,2013-06-08 01:57:00,
2013-06-07 19:02:00,99.7,27.9,29.49,NNW,328,6.0,7.0,8,0.00,,,0.00,28,WeatherCatV1.11B39,2013-06-08 02:02:00,
2013-06-07 19:07:00,99.1,27.5,29.49,WNW,300,8.0,9.0,8,0.00,,,0.00,21,WeatherCatV1.11B39,2013-06-08 02:07:00,
2013-06-07 19:12:00,98.7,27.2,29.49,West,274,5.0,7.0,8,0.00,,,0.00,18,WeatherCatV1.11B39,2013-06-08 02:12:00,
2013-06-07 19:17:00,98.4,27.0,29.50,NW,309,5.0,9.0,8,0.00,,,0.00,12,WeatherCatV1.11B39,2013-06-08 02:17:00,
2013-06-07 19:22:00,98.2,26.8,29.50,WNW,289,5.0,7.0,8,0.00,,,0.00,9,WeatherCatV1.11B39,2013-06-08 02:22:00,
2013-06-07 19:27:00,97.8,26.5,29.50,WNW,282,1.0,5.0,8,0.00,,,0.00,7,WeatherCatV1.11B39,2013-06-08 02:27:00,
2013-06-07 19:32:00,97.3,29.0,29.50,NNW,343,5.0,9.0,9,0.00,,,0.00,0,WeatherCatV1.11B39,2013-06-08 02:32:00,
2013-06-07 19:37:00,97.4,29.1,29.50,WNW,286,1.0,3.0,9,0.00,,,0.00,0,WeatherCatV1.11B39,2013-06-08 02:37:00,
2013-06-07 19:42:00,96.6,28.5,29.50,WNW,290,4.0,9.0,9,0.00,,,0.00,0,WeatherCatV1.11B39,2013-06-08 02:42:00,
2013-06-07 19:47:00,96.7,28.6,29.50,WNW,284,6.0,10.0,9,0.00,,,0.00,0,WeatherCatV1.11B39,2013-06-08 02:47:00,
2013-06-07 19:52:00,96.9,28.7,29.50,NW,307,3.0,4.0,9,0.00,,,0.00,0,WeatherCatV1.11B39,2013-06-08 02:52:00,
2013-06-07 19:57:00,97.1,28.9,29.51,NW,314,4.0,9.0,9,0.00,,,0.00,0,WeatherCatV1.11B39,2013-06-08 02:57:00,
2013-06-07 20:02:00,97.0,28.8,29.50,WNW,297,4.0,5.0,9,0.00,,,0.00,0,WeatherCatV1.11B39,2013-06-08 03:02:00,
2013-06-07 20:07:00,96.3,28.3,29.51,West,260,0.0,0.0,9,0.00,,,0.00,0,WeatherCatV1.11B39,2013-06-08 03:07:00,
2013-06-07 20:12:00,95.1,30.0,29.51,NW,319,2.0,4.0,10,0.00,,,0.00,0,WeatherCatV1.11B39,2013-06-08 03:12:00,
2013-06-07 20:17:00,93.9,31.4,29.51,NW,321,2.0,2.0,11,0.00,,,0.00,0,WeatherCatV1.11B39,2013-06-08 03:17:00,
2013-06-07 20:22:00,92.2,30.1,29.52,NW,319,1.0,1.0,11,0.00,,,0.00,0,WeatherCatV1.11B39,2013-06-08 03:22:00,
2013-06-07 20:27:00,91.8,29.8,29.51,NW,319,0.0,2.0,11,0.00,,,0.00,0,WeatherCatV1.11B39,2013-06-08 03:27:00,
2013-06-07 20:32:00,91.6,29.6,29.52,NW,313,2.0,4.0,11,0.00,,,0.00,0,WeatherCatV1.11B39,2013-06-08 03:32:00,
2013-06-07 20:37:00,92.4,27.9,29.52,NW,305,0.0,1.0,10,0.00,,,0.00,0,WeatherCatV1.11B39,2013-06-08 03:37:00,
2013-06-07 20:42:00,91.9,29.9,29.52,NW,305,0.0,2.0,11,0.00,,,0.00,0,WeatherCatV1.11B39,2013-06-08 03:42:00,
2013-06-07 20:47:00,91.9,29.9,29.52,NW,307,0.0,1.0,11,0.00,,,0.00,0,WeatherCatV1.11B39,2013-06-08 03:47:00,
2013-06-07 20:52:00,92.2,30.1,29.52,NW,322,3.0,3.0,11,0.00,,,0.00,0,WeatherCatV1.11B39,2013-06-08 03:52:00,
2013-06-07 20:57:00,92.8,28.2,29.53,North,9,2.0,5.0,10,0.00,,,0.00,0,WeatherCatV1.11B39,2013-06-08 03:57:00,
2013-06-07 21:01:00,93.2,28.5,29.53,North,357,6.0,8.0,10,0.00,,,0.00,0,WeatherCatV1.11B39,2013-06-08 04:01:00,
2013-06-07 21:06:00,93.8,29.0,29.53,NW,326,2.0,5.0,10,0.00,,,0.00,0,WeatherCatV1.11B39,2013-06-08 04:06:00,
2013-06-07 21:11:00,93.8,29.0,29.53,NNW,336,0.0,5.0,10,0.00,,,0.00,0,WeatherCatV1.11B39,2013-06-08 04:11:00,
2013-06-07 21:16:00,93.4,28.7,29.53,NNW,336,2.0,3.0,10,0.00,,,0.00,0,WeatherCatV1.11B39,2013-06-08 04:16:00,
2013-06-07 21:21:00,91.5,31.7,29.53,NNW,336,1.0,3.0,12,0.00,,,0.00,0,WeatherCatV1.11B39,2013-06-08 04:21:00,
2013-06-07 21:26:00,89.9,30.5,29.53,NNW,336,0.0,2.0,12,0.00,,,0.00,0,WeatherCatV1.11B39,2013-06-08 04:26:00,
2013-06-07 21:31:00,89.6,30.2,29.54,NNW,336,1.0,2.0,12,0.00,,,0.00,0,WeatherCatV1.11B39,2013-06-08 04:31:00,
2013-06-07 21:36:00,88.8,29.6,29.54,NNW,336,0.0,0.0,12,0.00,,,0.00,0,WeatherCatV1.11B39,2013-06-08 04:36:00,
2013-06-07 21:41:00,87.6,32.5,29.54,NNW,336,1.0,2.0,14,0.00,,,0.00,0,WeatherCatV1.11B39,2013-06-08 04:41:00,
2013-06-07 21:46:00,86.7,30.0,29.54,NNW,343,2.0,4.0,13,0.00,,,0.00,0,WeatherCatV1.11B39,2013-06-08 04:46:00,
2013-06-07 21:51:00,87.1,30.3,29.54,NNW,343,0.0,1.0,13,0.00,,,0.00,0,WeatherCatV1.11B39,2013-06-08 04:51:00,
2013-06-07 21:56:00,88.3,29.2,29.54,NNE,33,1.0,5.0,12,0.00,,,0.00,0,WeatherCatV1.11B39,2013-06-08 04:56:00,
2013-06-07 22:01:00,89.4,30.1,29.54,ENE,68,2.0,7.0,12,0.00,,,0.00,0,WeatherCatV1.11B39,2013-06-08 05:01:00,
2013-06-07 22:06:00,90.0,28.4,29.55,NE,53,0.0,2.0,11,0.00,,,0.00,0,WeatherCatV1.11B39,2013-06-08 05:06:00,
2013-06-07 22:11:00,89.5,30.2,29.55,NE,54,1.0,4.0,12,0.00,,,0.00,0,WeatherCatV1.11B39,2013-06-08 05:11:00,
2013-06-07 22:16:00,88.5,29.4,29.55,East,99,0.0,1.0,12,0.00,,,0.00,0,WeatherCatV1.11B39,2013-06-08 05:16:00,
2013-06-07 22:21:00,87.7,30.7,29.55,East,100,1.0,3.0,13,0.00,,,0.00,0,WeatherCatV1.11B39,2013-06-08 05:21:00,
2013-06-07 22:26:00,86.6,29.9,29.55,East,100,0.0,1.0,13,0.00,,,0.00,0,WeatherCatV1.11B39,2013-06-08 05:26:00,
2013-06-07 22:31:00,85.3,30.7,29.55,East,100,0.0,1.0,14,0.00,,,0.00,0,WeatherCatV1.11B39,2013-06-08 05:31:00,
2013-06-07 22:36:00,84.3,29.9,29.55,East,101,2.0,3.0,14,0.00,,,0.00,0,WeatherCatV1.11B39,2013-06-08 05:36:00,
2013-06-07 22:38:00,84.3,31.6,29.55,East,101,1.0,3.0,15,0.00,,,0.00,0,WeatherCatV1.11B39,2013-06-08 05:38:00,
2013-06-07 22:43:00,84.3,31.6,29.55,East,101,1.0,3.0,15,0.00,,,0.00,0,WeatherCatV1.11B39,2013-06-08 05:43:00,
2013-06-07 22:48:00,83.1,30.6,29.56,East,91,2.0,4.0,15,0.00,,,0.00,0,WeatherCatV1.11B39,2013-06-08 05:48:00,
2013-06-07 22:53:00,83.3,30.8,29.56,East,91,0.0,0.0,15,0.00,,,0.00,0,WeatherCatV1.11B39,2013-06-08 05:53:00,
2013-06-07 22:58:00,83.0,32.2,29.56,East,91,0.0,2.0,16,0.00,,,0.00,0,WeatherCatV1.11B39,2013-06-08 05:58:00,
2013-06-07 23:03:00,82.1,31.4,29.57,East,91,0.0,2.0,16,0.00,,,0.00,0,WeatherCatV1.11B39,2013-06-08 06:03:00,
2013-06-07 23:08:00,81.8,31.2,29.57,East,91,0.0,2.0,16,0.00,,,0.00,0,WeatherCatV1.11B39,2013-06-08 06:08:00,
2013-06-07 23:13:00,82.2,29.9,29.57,East,91,4.0,4.0,15,0.00,,,0.00,0,WeatherCatV1.11B39,2013-06-08 06:13:00,
2013-06-07 23:18:00,82.1,29.9,29.58,NE,34,4.0,6.0,15,0.00,,,0.00,0,WeatherCatV1.11B39,2013-06-08 06:18:00,
2013-06-07 23:23:00,82.6,30.3,29.57,ENE,61,1.0,4.0,15,0.00,,,0.00,0,WeatherCatV1.11B39,2013-06-08 06:23:00,
2013-06-07 23:28:00,83.3,29.1,29.58,ENE,62,3.0,3.0,14,0.00,,,0.00,0,WeatherCatV1.11B39,2013-06-08 06:28:00,
2013-06-07 23:33:00,84.2,29.8,29.57,ESE,113,2.0,4.0,14,0.00,,,0.00,0,WeatherCatV1.11B39,2013-06-08 06:33:00,
2013-06-07 23:38:00,85.0,28.6,29.58,ENE,69,3.0,5.0,13,0.00,,,0.00,0,WeatherCatV1.11B39,2013-06-08 06:38:00,
2013-06-07 23:43:00,85.4,28.9,29.58,ENE,69,3.0,3.0,13,0.00,,,0.00,0,WeatherCatV1.11B39,2013-06-08 06:43:00,
2013-06-07 23:48:00,85.1,28.7,29.58,ENE,72,0.0,3.0,13,0.00,,,0.00,0,WeatherCatV1.11B39,2013-06-08 06:48:00,
2013-06-07 23:53:00,84.1,29.7,29.58,ENE,72,1.0,3.0,14,0.00,,,0.00,0,WeatherCatV1.11B39,2013-06-08 06:53:00,
2013-06-07 23:58:00,83.0,30.6,29.58,ENE,72,3.0,3.0,15,0.00,,,0.00,0,WeatherCatV1.11B39,2013-06-08 06:58:00,